createdAt,value
2019-04-07T00:01:48.773Z,19.35
2019-04-07T00:04:17.967Z,20.20
2019-04-07T00:06:47.670Z,19.50
2019-04-07T00:09:17.652Z,20.20
2019-04-07T00:11:47.230Z,20.47
2019-04-07T00:14:16.779Z,19.17
2019-04-07T00:16:45.992Z,19.83
2019-04-07T00:19:15.795Z,19.80
2019-04-07T00:21:45.655Z,22.27
2019-04-07T00:24:15.000Z,22.10
2019-04-07T00:26:44.823Z,21.93
2019-04-07T00:29:14.477Z,23.50
2019-04-07T00:31:43.956Z,21.40
2019-04-07T00:34:15.423Z,20.45
2019-04-07T00:36:45.909Z,20.75
2019-04-07T00:39:15.452Z,21.33
2019-04-07T00:41:44.578Z,21.03
2019-04-07T00:44:14.669Z,21.00
2019-04-07T00:46:44.461Z,22.37
2019-04-07T00:49:13.927Z,21.67
2019-04-07T00:51:43.389Z,20.80
2019-04-07T00:54:12.877Z,21.20
2019-04-07T00:56:43.841Z,21.50
2019-04-07T00:59:13.446Z,21.47
2019-04-07T01:01:43.029Z,19.82
2019-04-07T01:04:12.311Z,19.97
2019-04-07T01:06:42.205Z,19.60
2019-04-07T01:09:13.434Z,20.37
2019-04-07T01:11:43.090Z,21.50
2019-04-07T01:14:12.496Z,18.95
2019-04-07T01:16:42.055Z,19.03
2019-04-07T01:19:11.584Z,20.00
2019-04-07T01:21:41.056Z,20.43
2019-04-07T01:24:10.520Z,21.50
2019-04-07T01:26:40.505Z,20.20
2019-04-07T01:29:10.214Z,20.00
2019-04-07T01:31:40.424Z,21.10
2019-04-07T01:34:09.726Z,19.70
2019-04-07T01:36:39.328Z,19.60
2019-04-07T01:39:10.596Z,18.87
2019-04-07T01:41:43.471Z,19.20
2019-04-07T01:44:14.616Z,18.10
2019-04-07T01:46:45.917Z,17.15
2019-04-07T01:49:17.063Z,17.52
2019-04-07T01:51:48.799Z,18.00
2019-04-07T01:54:18.046Z,18.87
2019-04-07T01:56:49.379Z,19.02
2019-04-07T01:59:20.914Z,18.45
2019-04-07T02:01:54.064Z,18.70
2019-04-07T02:04:25.244Z,18.87
2019-04-07T02:06:56.471Z,17.80
2019-04-07T02:09:27.944Z,19.23
2019-04-07T02:12:00.572Z,19.67
2019-04-07T02:14:31.473Z,18.07
2019-04-07T02:17:04.293Z,18.47
2019-04-07T02:19:35.933Z,18.33
2019-04-07T02:22:07.809Z,17.57
2019-04-07T02:24:39.925Z,16.85
2019-04-07T02:27:11.129Z,18.00
2019-04-07T02:29:45.052Z,18.23
2019-04-07T02:32:17.417Z,17.30
2019-04-07T02:34:49.059Z,17.37
2019-04-07T02:37:19.238Z,16.67
2019-04-07T02:39:53.338Z,17.47
2019-04-07T02:42:25.068Z,17.60
2019-04-07T02:44:56.101Z,17.33
2019-04-07T02:47:31.432Z,18.07
2019-04-07T02:50:03.388Z,15.77
2019-04-07T02:52:35.621Z,16.67
2019-04-07T02:55:11.142Z,16.93
2019-04-07T02:57:42.172Z,16.63
2019-04-07T03:00:13.966Z,16.82
2019-04-07T03:02:45.974Z,17.20
2019-04-07T03:05:17.466Z,16.47
2019-04-07T03:07:48.846Z,18.03
2019-04-07T03:10:22.811Z,16.63
2019-04-07T03:12:54.700Z,17.52
2019-04-07T03:15:26.916Z,18.30
2019-04-07T03:17:58.292Z,17.20
2019-04-07T03:20:29.631Z,16.50
2019-04-07T03:23:00.538Z,15.93
2019-04-07T03:25:32.457Z,15.58
2019-04-07T03:28:04.703Z,15.70
2019-04-07T03:30:39.686Z,16.20
2019-04-07T03:33:11.194Z,14.17
2019-04-07T03:35:42.295Z,15.23
2019-04-07T03:38:12.682Z,15.93
2019-04-07T03:40:44.182Z,15.27
2019-04-07T03:43:15.569Z,14.65
2019-04-07T03:45:50.627Z,14.30
2019-04-07T03:48:21.868Z,15.23
2019-04-07T03:50:53.113Z,13.90
2019-04-07T03:53:24.433Z,14.43
2019-04-07T03:55:55.855Z,13.67
2019-04-07T03:58:25.908Z,13.40
2019-04-07T04:00:58.139Z,15.27
2019-04-07T04:03:30.168Z,14.03
2019-04-07T04:06:04.652Z,14.73
2019-04-07T04:08:35.882Z,15.30
2019-04-07T04:11:07.079Z,14.53
2019-04-07T04:13:38.219Z,13.97
2019-04-07T04:16:08.129Z,14.33
2019-04-07T04:18:37.747Z,14.90
2019-04-07T04:21:07.279Z,14.98
2019-04-07T04:23:38.007Z,13.87
2019-04-07T04:26:08.318Z,14.00
2019-04-07T04:28:39.046Z,16.40
2019-04-07T04:31:08.189Z,14.57
2019-04-07T04:33:37.918Z,14.50
2019-04-07T04:36:08.108Z,14.37
2019-04-07T04:38:38.447Z,16.60
2019-04-07T04:41:08.056Z,15.50
2019-04-07T04:43:38.194Z,14.60
2019-04-07T04:46:09.969Z,15.90
2019-04-07T04:48:39.390Z,15.90
2019-04-07T04:51:09.758Z,16.13
2019-04-07T04:53:39.397Z,17.30
2019-04-07T04:56:09.730Z,16.20
2019-04-07T04:58:38.899Z,16.50
2019-04-07T05:01:08.497Z,15.83
2019-04-07T05:03:38.359Z,16.17
2019-04-07T05:06:07.871Z,16.30
2019-04-07T05:08:37.878Z,16.85
2019-04-07T05:11:07.890Z,17.05
2019-04-07T05:13:37.537Z,17.65
2019-04-07T05:16:07.194Z,16.00
2019-04-07T05:18:37.146Z,16.90
2019-04-07T05:21:06.939Z,16.50
2019-04-07T05:23:36.505Z,14.43
2019-04-07T05:26:06.899Z,16.23
2019-04-07T05:28:37.049Z,13.97
2019-04-07T05:31:07.448Z,14.57
2019-04-07T05:33:36.932Z,13.70
2019-04-07T05:36:06.944Z,13.67
2019-04-07T05:38:36.682Z,12.97
2019-04-07T05:41:06.518Z,12.97
2019-04-07T05:43:35.974Z,14.17
2019-04-07T05:46:07.333Z,13.83
2019-04-07T05:48:37.098Z,13.27
2019-04-07T05:51:07.234Z,13.73
2019-04-07T05:53:36.821Z,13.10
2019-04-07T05:56:06.346Z,13.53
2019-04-07T05:58:38.670Z,13.00
2019-04-07T06:01:07.503Z,13.40
2019-04-07T06:03:41.211Z,13.53
2019-04-07T06:06:08.312Z,12.15
2019-04-07T06:08:39.946Z,12.20
2019-04-07T06:11:09.488Z,12.50
2019-04-07T06:13:39.146Z,11.30
2019-04-07T06:16:08.196Z,12.10
2019-04-07T06:18:37.908Z,11.93
2019-04-07T06:21:07.777Z,12.13
2019-04-07T06:23:37.525Z,12.20
2019-04-07T06:26:11.344Z,10.80
2019-04-07T06:28:39.262Z,12.00
2019-04-07T06:31:09.471Z,11.37
2019-04-07T06:33:39.369Z,10.73
2019-04-07T06:36:09.445Z,10.80
2019-04-07T06:38:43.200Z,10.65
2019-04-07T06:41:11.456Z,10.40
2019-04-07T06:43:41.253Z,11.90
2019-04-07T06:46:10.812Z,10.43
2019-04-07T06:48:45.107Z,9.90
2019-04-07T06:51:17.377Z,9.33
2019-04-07T06:53:49.210Z,9.60
2019-04-07T06:56:21.496Z,8.80
2019-04-07T06:58:55.628Z,8.60
2019-04-07T07:01:27.447Z,8.73
2019-04-07T07:03:58.734Z,8.78
2019-04-07T07:06:29.996Z,8.60
2019-04-07T07:09:01.969Z,8.67
2019-04-07T07:11:34.660Z,9.10
2019-04-07T07:14:06.277Z,8.30
2019-04-07T07:16:41.083Z,8.85
2019-04-07T07:19:10.654Z,7.65
2019-04-07T07:21:42.633Z,7.33
2019-04-07T07:24:14.663Z,7.37
2019-04-07T07:26:44.133Z,7.43
2019-04-07T07:29:15.265Z,7.17
2019-04-07T07:31:44.950Z,7.80
2019-04-07T07:34:15.540Z,8.07
2019-04-07T07:36:46.688Z,7.90
2019-04-07T07:39:17.670Z,7.77
2019-04-07T07:41:50.323Z,7.43
2019-04-07T07:44:18.836Z,6.47
2019-04-07T07:46:50.398Z,6.60
2019-04-07T07:49:19.519Z,7.37
2019-04-07T07:51:49.125Z,6.80
2019-04-07T07:54:18.884Z,6.25
2019-04-07T07:56:51.179Z,7.70
2019-04-07T07:59:20.093Z,7.40
2019-04-07T08:01:51.335Z,6.33
2019-04-07T08:04:20.785Z,7.67
2019-04-07T08:06:50.188Z,6.50
2019-04-07T08:09:23.113Z,6.90
2019-04-07T08:11:51.150Z,6.90
2019-04-07T08:14:20.620Z,6.22
2019-04-07T08:16:50.163Z,6.10
2019-04-07T08:19:21.094Z,6.77
2019-04-07T08:21:51.974Z,6.70
2019-04-07T08:24:21.855Z,6.17
2019-04-07T08:26:54.029Z,6.42
2019-04-07T08:29:22.657Z,5.93
2019-04-07T08:31:55.158Z,6.57
2019-04-07T08:34:23.298Z,6.47
2019-04-07T08:36:53.069Z,6.50
2019-04-07T08:39:35.427Z,5.40
2019-04-07T08:42:18.605Z,6.67
2019-04-07T08:44:47.294Z,5.97
2019-04-07T08:47:21.183Z,6.13
2019-04-07T08:49:48.259Z,5.77
2019-04-07T08:52:21.106Z,6.33
2019-04-07T08:54:52.403Z,6.28
2019-04-07T08:57:21.523Z,7.33
2019-04-07T08:59:51.385Z,6.30
2019-04-07T09:02:22.435Z,6.40
2019-04-07T09:04:52.473Z,6.65
2019-04-07T09:07:24.355Z,6.10
2019-04-07T09:09:52.689Z,5.72
2019-04-07T09:12:21.916Z,5.47
2019-04-07T09:14:51.453Z,5.70
2019-04-07T09:17:30.645Z,5.25
2019-04-07T09:19:57.121Z,5.70
2019-04-07T09:22:30.363Z,5.62
2019-04-07T09:25:06.655Z,6.25
2019-04-07T09:27:35.277Z,5.67
2019-04-07T09:30:10.077Z,5.30
2019-04-07T09:32:42.710Z,4.73
2019-04-07T09:35:14.460Z,4.90
2019-04-07T09:37:45.566Z,4.73
2019-04-07T09:40:17.573Z,4.73
2019-04-07T09:42:49.612Z,4.37
2019-04-07T09:45:20.748Z,4.10
2019-04-07T09:47:52.006Z,5.00
2019-04-07T09:50:26.886Z,4.30
2019-04-07T09:52:58.709Z,3.90
2019-04-07T09:55:30.106Z,4.53
2019-04-07T09:58:01.922Z,3.80
2019-04-07T10:00:33.892Z,3.47
2019-04-07T10:03:08.605Z,3.08
2019-04-07T10:05:40.141Z,3.15
2019-04-07T10:08:16.753Z,2.80
2019-04-07T10:10:47.333Z,2.87
2019-04-07T10:13:18.897Z,3.07
2019-04-07T10:15:52.157Z,2.30
2019-04-07T10:18:24.016Z,3.33
2019-04-07T10:20:55.857Z,2.30
2019-04-07T10:23:27.180Z,3.42
2019-04-07T10:25:58.515Z,2.83
2019-04-07T10:28:29.712Z,2.63
2019-04-07T10:31:01.130Z,2.60
2019-04-07T10:33:35.773Z,3.08
2019-04-07T10:36:07.903Z,2.60
2019-04-07T10:38:39.132Z,3.20
2019-04-07T10:41:10.754Z,2.60
2019-04-07T10:43:42.506Z,2.50
2019-04-07T10:46:14.629Z,2.33
2019-04-07T10:48:46.648Z,2.50
2019-04-07T10:51:18.460Z,2.67
2019-04-07T10:53:51.103Z,2.40
2019-04-07T10:56:22.529Z,2.30
2019-04-07T10:58:56.718Z,2.20
2019-04-07T11:01:26.698Z,2.57
2019-04-07T11:03:58.048Z,2.30
2019-04-07T11:06:29.510Z,2.35
2019-04-07T11:09:00.451Z,2.47
2019-04-07T11:11:36.053Z,2.17
2019-04-07T11:14:07.869Z,2.00
2019-04-07T11:16:42.144Z,2.27
2019-04-07T11:19:13.293Z,2.30
2019-04-07T11:21:44.666Z,1.80
2019-04-07T11:24:16.565Z,2.17
2019-04-07T11:26:48.583Z,2.30
2019-04-07T11:29:18.191Z,1.80
2019-04-07T11:31:53.251Z,2.10
2019-04-07T11:34:24.549Z,2.40
2019-04-07T11:36:56.116Z,2.70
2019-04-07T11:39:27.495Z,1.60
2019-04-07T11:42:01.448Z,1.93
2019-04-07T11:44:33.895Z,2.17
2019-04-07T11:47:06.331Z,2.23
2019-04-07T11:49:37.726Z,2.10
2019-04-07T11:52:09.839Z,2.37
2019-04-07T11:54:43.844Z,1.73
2019-04-07T11:57:15.376Z,2.57
2019-04-07T11:59:49.068Z,2.00
2019-04-07T12:02:23.149Z,2.20
2019-04-07T12:04:54.316Z,2.50
2019-04-07T12:07:25.445Z,2.07
2019-04-07T12:09:56.975Z,2.00
2019-04-07T12:12:28.884Z,2.27
2019-04-07T12:15:00.229Z,2.43
2019-04-07T12:17:33.993Z,2.20
2019-04-07T12:20:06.481Z,2.30
2019-04-07T12:22:37.950Z,1.90
2019-04-07T12:25:10.526Z,2.27
2019-04-07T12:27:44.632Z,2.03
2019-04-07T12:30:15.484Z,2.20
2019-04-07T12:32:47.779Z,2.73
2019-04-07T12:35:19.121Z,2.80
2019-04-07T12:37:58.021Z,2.20
2019-04-07T12:40:29.026Z,2.50
2019-04-07T12:43:00.252Z,3.00
2019-04-07T12:45:31.901Z,1.97
2019-04-07T12:48:01.469Z,2.33
2019-04-07T12:50:32.816Z,1.77
2019-04-07T12:53:04.876Z,2.00
2019-04-07T12:55:36.155Z,1.70
2019-04-07T12:58:11.568Z,1.70
2019-04-07T13:00:55.794Z,1.90
2019-04-07T13:03:15.567Z,2.13
2019-04-07T13:05:46.714Z,2.73
2019-04-07T13:08:22.537Z,2.07
2019-04-07T13:10:51.238Z,2.03
2019-04-07T13:13:24.357Z,2.30
2019-04-07T13:15:55.204Z,2.15
2019-04-07T13:18:26.457Z,2.20
2019-04-07T13:21:01.136Z,1.90
2019-04-07T13:23:32.985Z,1.80
2019-04-07T13:26:04.070Z,2.10
2019-04-07T13:28:35.909Z,1.80
2019-04-07T13:31:07.325Z,1.90
2019-04-07T13:33:41.411Z,2.10
2019-04-07T13:36:12.638Z,2.10
2019-04-07T13:38:44.541Z,2.02
2019-04-07T13:41:18.595Z,1.80
2019-04-07T13:43:49.457Z,2.25
2019-04-07T13:46:27.850Z,2.17
2019-04-07T13:48:58.800Z,1.70
2019-04-07T13:51:26.849Z,1.50
2019-04-07T13:54:02.020Z,1.80
2019-04-07T13:56:33.045Z,1.80
2019-04-07T13:59:08.164Z,2.23
2019-04-07T14:01:37.028Z,2.07
2019-04-07T14:04:08.916Z,1.87
2019-04-07T14:06:43.629Z,1.77
2019-04-07T14:09:13.218Z,1.77
2019-04-07T14:11:57.205Z,2.00
2019-04-07T14:14:17.917Z,1.80
2019-04-07T14:16:52.808Z,1.87
2019-04-07T14:19:24.211Z,1.93
2019-04-07T14:21:55.732Z,1.97
2019-04-07T14:24:25.182Z,1.70
2019-04-07T14:26:56.699Z,1.90
2019-04-07T14:29:28.432Z,1.80
2019-04-07T14:32:00.874Z,2.17
2019-04-07T14:34:32.742Z,1.90
2019-04-07T14:37:05.397Z,2.45
2019-04-07T14:39:39.340Z,2.00
2019-04-07T14:42:10.066Z,1.90
2019-04-07T14:44:41.425Z,1.90
2019-04-07T14:47:12.836Z,2.00
2019-04-07T14:49:51.748Z,2.10
2019-04-07T14:52:21.612Z,2.08
2019-04-07T14:54:56.998Z,2.30
2019-04-07T14:57:26.063Z,1.93
2019-04-07T15:00:00.042Z,1.97
2019-04-07T15:02:30.217Z,2.00
2019-04-07T15:05:01.404Z,2.00
2019-04-07T15:07:32.792Z,1.70
2019-04-07T15:10:04.079Z,1.60
2019-04-07T15:12:35.946Z,1.80
2019-04-07T15:15:11.215Z,2.00
2019-04-07T15:17:39.352Z,2.50
2019-04-07T15:20:11.641Z,1.77
2019-04-07T15:22:39.944Z,2.20
2019-04-07T15:25:10.284Z,1.90
2019-04-07T15:27:40.175Z,1.90
2019-04-07T15:30:13.277Z,1.62
2019-04-07T15:32:41.644Z,1.73
2019-04-07T15:35:12.455Z,1.93
2019-04-07T15:37:42.580Z,2.20
2019-04-07T15:40:12.266Z,2.00
2019-04-07T15:42:44.432Z,1.95
2019-04-07T15:45:13.457Z,2.00
2019-04-07T15:47:42.995Z,1.50
2019-04-07T15:50:13.764Z,1.73
2019-04-07T15:52:45.959Z,1.67
2019-04-07T15:55:14.827Z,1.65
2019-04-07T15:57:44.293Z,1.87
2019-04-07T16:00:15.247Z,1.60
2019-04-07T16:02:44.545Z,2.20
2019-04-07T16:05:14.836Z,1.80
2019-04-07T16:07:44.916Z,1.80
2019-04-07T16:10:14.699Z,1.70
2019-04-07T16:12:50.018Z,1.90
2019-04-07T16:15:17.890Z,1.75
2019-04-07T16:17:47.616Z,2.00
2019-04-07T16:20:23.962Z,2.23
2019-04-07T16:22:51.398Z,2.53
2019-04-07T16:25:22.732Z,1.90
2019-04-07T16:27:51.113Z,2.23
2019-04-07T16:30:20.520Z,1.60
2019-04-07T16:32:49.651Z,1.80
2019-04-07T16:35:19.276Z,1.65
2019-04-07T16:37:48.789Z,2.23
2019-04-07T16:40:18.486Z,1.87
2019-04-07T16:43:01.256Z,1.93
2019-04-07T16:45:19.247Z,2.00
2019-04-07T16:47:48.681Z,1.60
2019-04-07T16:50:20.292Z,2.17
2019-04-07T16:52:49.715Z,1.53
2019-04-07T16:55:23.599Z,1.80
2019-04-07T16:57:53.143Z,1.90
2019-04-07T17:00:22.710Z,1.98
2019-04-07T17:02:52.847Z,1.60
2019-04-07T17:05:24.461Z,1.67
2019-04-07T17:07:56.013Z,1.93
2019-04-07T17:10:29.587Z,1.90
2019-04-07T17:12:58.257Z,2.00
2019-04-07T17:15:28.476Z,1.90
2019-04-07T17:17:58.808Z,2.00
2019-04-07T17:20:33.324Z,1.60
2019-04-07T17:23:00.397Z,1.60
2019-04-07T17:25:32.825Z,1.97
2019-04-07T17:28:03.685Z,1.80
2019-04-07T17:30:32.513Z,2.07
2019-04-07T17:33:03.245Z,12.20
2019-04-07T17:35:32.834Z,5.80
2019-04-07T17:38:06.298Z,4.07
2019-04-07T17:40:36.469Z,3.90
2019-04-07T17:43:08.222Z,2.10
2019-04-07T17:45:39.300Z,2.27
2019-04-07T17:48:13.397Z,2.20
2019-04-07T17:50:44.549Z,4.47
2019-04-07T17:53:17.638Z,4.07
2019-04-07T17:55:48.933Z,3.67
2019-04-07T17:58:23.078Z,4.80
2019-04-07T18:00:54.468Z,2.97
2019-04-07T18:03:25.774Z,2.83
2019-04-07T18:06:00.033Z,2.17
2019-04-07T18:08:29.563Z,2.60
2019-04-07T18:11:01.049Z,3.70
2019-04-07T18:13:43.441Z,2.60
2019-04-07T18:16:06.270Z,2.25
2019-04-07T18:18:37.825Z,8.60
2019-04-07T18:21:11.737Z,3.77
2019-04-07T18:23:42.060Z,3.07
2019-04-07T18:26:15.610Z,3.03
2019-04-07T18:28:46.491Z,2.92
2019-04-07T18:31:17.946Z,4.10
2019-04-07T18:33:52.598Z,3.47
2019-04-07T18:36:25.688Z,3.83
2019-04-07T18:38:56.959Z,2.97
2019-04-07T18:41:30.828Z,2.90
2019-04-07T18:44:08.560Z,2.90
2019-04-07T18:46:42.261Z,3.20
2019-04-07T18:49:13.432Z,3.27
2019-04-07T18:51:49.735Z,2.72
2019-04-07T18:54:21.426Z,3.23
2019-04-07T18:56:54.578Z,3.00
2019-04-07T18:59:25.861Z,3.00
2019-04-07T19:01:59.994Z,3.17
2019-04-07T19:04:31.582Z,3.00
2019-04-07T19:07:02.819Z,2.90
2019-04-07T19:09:34.434Z,3.45
2019-04-07T19:12:10.448Z,4.57
2019-04-07T19:14:44.506Z,5.10
2019-04-07T19:17:10.685Z,3.80
2019-04-07T19:19:42.058Z,2.90
2019-04-07T19:22:15.927Z,2.15
2019-04-07T19:24:46.302Z,2.40
2019-04-07T19:27:21.624Z,2.53
2019-04-07T19:29:53.267Z,3.20
2019-04-07T19:32:25.087Z,3.10
2019-04-07T19:34:57.187Z,2.80
2019-04-07T19:37:28.316Z,2.60
2019-04-07T19:40:03.005Z,2.72
2019-04-07T19:42:38.795Z,2.63
2019-04-07T19:45:09.144Z,3.07
2019-04-07T19:47:44.400Z,2.57
2019-04-07T19:50:16.907Z,2.77
2019-04-07T19:52:48.283Z,2.97
2019-04-07T19:55:22.687Z,3.70
2019-04-07T19:57:52.583Z,3.80
2019-04-07T20:00:26.316Z,4.50
2019-04-07T20:02:57.380Z,6.03
2019-04-07T20:05:28.595Z,5.10
2019-04-07T20:08:02.579Z,4.67
2019-04-07T20:10:32.659Z,9.95
2019-04-07T20:13:05.537Z,8.90
2019-04-07T20:15:41.775Z,5.07
2019-04-07T20:18:12.450Z,4.03
2019-04-07T20:20:44.690Z,3.83
2019-04-07T20:23:17.458Z,4.60
2019-04-07T20:25:49.301Z,4.00
2019-04-07T20:28:20.529Z,4.72
2019-04-07T20:30:52.800Z,5.13
2019-04-07T20:33:23.193Z,5.20
2019-04-07T20:35:54.407Z,4.47
2019-04-07T20:38:27.296Z,4.97
2019-04-07T20:41:01.413Z,4.27
2019-04-07T20:43:33.020Z,5.07
2019-04-07T20:46:04.614Z,5.07
2019-04-07T20:48:37.025Z,4.40
2019-04-07T20:51:08.466Z,4.93
2019-04-07T20:53:40.775Z,5.28
2019-04-07T20:56:13.036Z,5.07
2019-04-07T20:58:52.513Z,5.42
2019-04-07T21:01:22.328Z,4.70
2019-04-07T21:03:56.060Z,7.43
2019-04-07T21:06:29.915Z,6.47
2019-04-07T21:09:02.751Z,4.97
2019-04-07T21:11:33.303Z,5.00
2019-04-07T21:14:04.612Z,5.37
2019-04-07T21:16:35.741Z,5.70
2019-04-07T21:19:08.382Z,6.70
2019-04-07T21:21:43.303Z,5.23
2019-04-07T21:24:14.454Z,5.60
2019-04-07T21:26:45.959Z,4.87
2019-04-07T21:29:18.110Z,5.40
2019-04-07T21:31:49.484Z,5.53
2019-04-07T21:34:23.960Z,5.67
2019-04-07T21:36:54.024Z,5.03
2019-04-07T21:39:30.462Z,4.40
2019-04-07T21:42:01.781Z,3.83
2019-04-07T21:44:33.751Z,4.40
2019-04-07T21:47:04.969Z,5.15
2019-04-07T21:49:39.500Z,6.50
2019-04-07T21:52:09.897Z,4.70
2019-04-07T21:54:41.578Z,5.50
2019-04-07T21:57:14.083Z,5.40
2019-04-07T21:59:44.666Z,5.33
2019-04-07T22:02:15.964Z,5.23
2019-04-07T22:04:46.389Z,6.90
2019-04-07T22:07:23.403Z,5.23
2019-04-07T22:09:57.304Z,5.10
2019-04-07T22:12:30.204Z,4.80
2019-04-07T22:14:57.809Z,6.10
2019-04-07T22:17:27.698Z,5.87
2019-04-07T22:19:57.272Z,5.07
2019-04-07T22:22:27.668Z,3.80
2019-04-07T22:24:58.020Z,5.42
2019-04-07T22:27:28.680Z,5.00
2019-04-07T22:29:59.926Z,5.47
2019-04-07T22:32:31.062Z,5.03
2019-04-07T22:35:04.781Z,4.87
2019-04-07T22:37:32.884Z,4.92
2019-04-07T22:40:03.394Z,5.03
2019-04-07T22:42:33.030Z,5.00
2019-04-07T22:45:02.491Z,5.03
2019-04-07T22:47:31.962Z,5.90
2019-04-07T22:50:05.147Z,6.85
2019-04-07T22:52:32.677Z,5.27
2019-04-07T22:55:06.754Z,4.97
2019-04-07T22:57:34.325Z,5.17
2019-04-07T23:00:06.442Z,6.10
2019-04-07T23:02:36.180Z,6.53
2019-04-07T23:05:07.201Z,7.10
2019-04-07T23:07:37.325Z,7.37
2019-04-07T23:10:06.543Z,6.37
2019-04-07T23:12:36.151Z,6.33
2019-04-07T23:15:07.358Z,5.97
2019-04-07T23:17:36.835Z,7.03
2019-04-07T23:20:07.705Z,7.20
2019-04-07T23:22:38.201Z,7.42
2019-04-07T23:25:09.849Z,7.80
2019-04-07T23:27:39.377Z,8.70
2019-04-07T23:30:11.034Z,8.73
2019-04-07T23:32:41.503Z,9.85
2019-04-07T23:35:12.446Z,8.15
2019-04-07T23:37:41.435Z,8.80
2019-04-07T23:40:11.480Z,10.13
2019-04-07T23:42:40.917Z,9.93
2019-04-07T23:45:10.863Z,9.67
2019-04-07T23:47:40.721Z,10.83
2019-04-07T23:50:11.162Z,11.03
2019-04-07T23:52:41.179Z,12.63
2019-04-07T23:55:10.909Z,13.60
2019-04-07T23:57:40.320Z,13.03
